Flight Track Log - Related Links

Times and Time Zones

All times are in EDT time to prevent confusion due to time zone crossing. See the AFR3552 flight status page for this flight to view local times or setup timezone preferences in your user account.


Time Position Orientation Groundspeed Altitude Reporting Facility
EDT Latitude Longitude Course Direction KTS MPH feet Rate Location/Type
Thu 07:50:32 AM 48.7330 2.4310 74° East 179 206 1,700  Level FlightAware ADS-B
Thu 07:50:47 AM 48.7360 2.4500 77° East 185 213 2,200 2,267 Climbing FlightAware ADS-B
Thu 07:51:17 AM 48.7380 2.4890 86° East 189 217 3,400 2,250 Climbing FlightAware ADS-B
Thu 07:51:27 AM 48.7390 2.5050 85° East 198 228 3,700 933 Climbing FlightAware ADS-B
Thu 07:52:02 AM 48.7430 2.5550 83° East 248 285 4,100 1,200 Climbing FlightAware ADS-B
Thu 07:52:22 AM 48.7410 2.5930 95° East 264 304 4,800 2,000 Climbing FlightAware ADS-B
Thu 07:52:32 AM 48.7350 2.6080 121° Southeast 274 315 5,100 2,400 Climbing FlightAware ADS-B
Thu 07:52:47 AM 48.7190 2.6250 145° Southeast 283 326 5,800 2,800 Climbing FlightAware ADS-B
Thu 07:53:02 AM 48.6990 2.6320 167° South 286 329 6,500 2,400 Climbing FlightAware ADS-B
Thu 07:53:27 AM 48.6690 2.6170 198° South 298 343 7,400 2,049 Climbing FlightAware ADS-B
Thu 07:53:43 AM 48.6550 2.5930 229° Southwest 303 349 7,900 2,000 Climbing FlightAware ADS-B
Thu 07:53:57 AM 48.6500 2.5630 256° West 305 351 8,400 2,615 Climbing FlightAware ADS-B
Thu 07:54:22 AM 48.6500 2.5070 270° West 303 349 9,600 2,215 Climbing FlightAware ADS-B
Thu 07:55:02 AM 48.6520 2.4240 272° West 327 376 10,800 1,575 Climbing FlightAware ADS-B
Thu 07:55:42 AM 48.6520 2.3220 270° West 366 421 11,700 1,500 Climbing FlightAware ADS-B
Thu 07:56:22 AM 48.6530 2.2160 271° West 398 458 12,800 2,074 Climbing FlightAware ADS-B
Thu 07:57:03 AM 48.6540 2.1020 271° West 408 470 14,500 2,442 Climbing FlightAware ADS-B
Thu 07:57:48 AM 48.6630 1.9810 276° West 419 482 16,300 2,488 Climbing FlightAware ADS-B
Thu 07:58:25 AM 48.6736 1.8587 276° West 418 481 17,900 2,533 Climbing FlightAware UK
Thu 07:58:33 AM 48.6770 1.8360 276° West 432 497 18,200 2,233 Climbing FlightAware ADS-B
Thu 07:59:08 AM 48.6860 1.7340 278° West 439 505 19,500 2,123 Climbing FlightAware ADS-B
Thu 07:59:59 AM 48.7000 1.5840 278° West 21,200 2,084 Climbing FlightAware ADS-B
Thu 08:00:43 AM 48.7131 1.4313 278° West 448 516 22,800 1,636 Climbing FlightAware UK
Thu 08:00:43 AM 48.7100 1.4690 278° West 460 529 22,400 2,000 Descending FlightAware ADS-B
Thu 08:01:13 AM 48.7221 1.3353 278° West 456 525 23,800 2,229 Climbing FlightAware UK
Thu 08:01:18 AM 48.7210 1.3460 278° West 467 537 23,700 1,395 Descending FlightAware ADS-B
Thu 08:01:56 AM 48.7310 1.2290 277° West 474 545 24,800 1,624 Climbing FlightAware ADS-B
Thu 08:02:43 AM 48.7440 1.0830 278° West 482 555 26,000 1,655 Climbing FlightAware ADS-B
Thu 08:03:23 AM 48.7570 0.9320 278° West 490 564 27,200 2,143 Climbing FlightAware ADS-B
Thu 08:03:25 AM 48.7597 0.8959 278° West 478 550 27,500 1,263 Climbing FlightAware UK
Thu 08:04:01 AM 48.7703 0.7722 278° West 482 555 28,000 789 Climbing FlightAware UK
Thu 08:04:03 AM 48.7690 0.7980 278° West 495 570 28,000  Level FlightAware ADS-B
Thu 08:04:49 AM 48.7810 0.6360 276° West 496 571 28,000  Level FlightAware ADS-B
Thu 08:05:33 AM 48.7510 0.4620 255° West 505 581 28,000 684 Level FlightAware ADS-B
Thu 08:06:08 AM 48.7030 0.3600 235° Southwest 512 589 28,900 1,421 Climbing FlightAware ADS-B
Thu 08:06:49 AM 48.6360 0.2570 225° Southwest 519 597 29,800 1,556 Climbing FlightAware ADS-B
Thu 08:07:29 AM 48.5620 0.1530 225° Southwest 519 597 31,000 1,610 Climbing FlightAware ADS-B
Thu 08:07:30 AM 48.5595 0.1512 225° Southwest 496 571 30,900 1,935 Descending FlightAware UK
Thu 08:08:00 AM 48.5071 0.0771 225° Southwest 496 571 32,000 2,250 Climbing FlightAware UK
Thu 08:08:10 AM 48.4940 0.0580 225° Southwest 507 583 32,400 1,154 Climbing FlightAware ADS-B
Thu 08:08:52 AM 48.4270 -0.0510 227° Southwest 499 574 33,000 367 Climbing FlightAware ADS-B
Thu 08:09:48 AM 48.3539 -0.2151 227° Southwest 488 562 33,000  Level FlightAware UK
Thu 08:09:51 AM 48.3510 -0.2220 227° Southwest 499 574 33,000  Level FlightAware ADS-B
Thu 08:10:33 AM 48.2990 -0.3460 238° Southwest 500 575 33,000  Level FlightAware ADS-B
Thu 08:11:57 AM 48.2080 -0.5650 238° Southwest 499 574 33,000  Level FlightAware ADS-B
Thu 08:12:32 AM 48.1690 -0.6580 238° Southwest 499 574 33,000  Level FlightAware ADS-B
Thu 08:13:21 AM 48.0930 -0.8370 238° Southwest 500 575 33,000  Level FlightAware ADS-B
Thu 08:13:59 AM 48.0460 -0.9490 238° Southwest 501 577 33,000  Level FlightAware ADS-B
Thu 08:14:45 AM 47.9890 -1.0830 238° Southwest 501 577 33,000  Level FlightAware ADS-B
Thu 08:14:54 AM 47.9790 -1.1060 237° Southwest 501 577 33,000  Level FlightAware ADS-B
Thu 08:16:07 AM 47.8920 -1.3080 237° Southwest 502 578 33,000  Level FlightAware ADS-B
Thu 08:16:51 AM 47.8350 -1.4500 239° Southwest 502 578 33,000  Level FlightAware ADS-B
Thu 08:17:35 AM 47.7990 -1.5940 250° West 504 580 33,000  Level FlightAware ADS-B
Thu 08:18:23 AM 47.7650 -1.7520 252° West 505 581 33,000  Level FlightAware ADS-B
Thu 08:19:09 AM 47.7320 -1.9030 252° West 505 581 33,000  Level FlightAware ADS-B
Thu 08:19:53 AM 47.7010 -2.0480 252° West 506 582 33,000  Level FlightAware ADS-B
Thu 08:20:49 AM 47.6610 -2.2310 252° West 505 581 33,000  Level FlightAware ADS-B
Thu 08:21:29 AM 47.6330 -2.3590 252° West 504 580 33,000  Level FlightAware ADS-B
Thu 08:22:13 AM 47.6000 -2.5070 252° West 504 580 33,000  Level FlightAware ADS-B
Thu 08:22:53 AM 47.5710 -2.6360 252° West 503 579 33,000  Level FlightAware ADS-B
Thu 08:23:37 AM 47.5400 -2.7740 252° West 502 578 33,000  Level FlightAware ADS-B
Thu 08:24:21 AM 47.5070 -2.9210 252° West 501 577 33,000  Level FlightAware ADS-B
Thu 08:25:01 AM 47.4780 -3.0500 252° West 502 578 33,000  Level FlightAware ADS-B
Thu 08:25:43 AM 47.4460 -3.1880 251° West 501 577 33,000  Level FlightAware ADS-B
Thu 08:26:25 AM 47.4160 -3.3210 252° West 501 577 33,000  Level FlightAware ADS-B
Thu 08:27:21 AM 47.3720 -3.5090 251° West 501 577 33,000  Level FlightAware ADS-B
Thu 08:28:06 AM 47.3390 -3.6520 251° West 500 575 33,000  Level FlightAware ADS-B
Thu 08:28:46 AM 47.3090 -3.7800 251° West 499 574 33,000  Level FlightAware ADS-B
Thu 08:29:30 AM 47.2770 -3.9150 251° West 497 572 33,000  Level FlightAware ADS-B
Thu 08:29:54 AM 47.2580 -3.9970 251° West 496 571 33,000  Level FlightAware ADS-B
Thu 08:31:09 AM 47.2090 -4.2000 251° West 497 572 33,000  Level FlightAware ADS-B
Thu 08:31:50 AM 47.1690 -4.3660 251° West 496 571 33,000  Level FlightAware ADS-B
Thu 08:32:28 AM 47.1390 -4.4880 250° West 497 572 33,000  Level FlightAware ADS-B
Thu 08:33:08 AM 47.1090 -4.6130 251° West 498 573 33,000  Level FlightAware ADS-B
Thu 08:33:44 AM 47.0800 -4.7290 250° West 497 572 33,000  Level FlightAware ADS-B
Thu 08:34:26 AM 47.0490 -4.8580 251° West 495 570 33,000  Level FlightAware ADS-B
Thu 08:35:10 AM 47.0140 -4.9990 250° West 494 568 33,000  Level FlightAware ADS-B
Thu 08:35:46 AM 46.9860 -5.1110 250° West 494 568 33,000  Level FlightAware ADS-B
Thu 08:36:30 AM 46.9510 -5.2480 250° West 493 567 33,000  Level FlightAware ADS-B
Thu 08:37:10 AM 46.9190 -5.3740 250° West 490 564 33,000  Level FlightAware ADS-B
Thu 08:37:54 AM 46.8850 -5.5110 250° West 489 563 33,000  Level FlightAware ADS-B
Thu 08:38:36 AM 46.8510 -5.6410 249° West 487 560 33,000  Level FlightAware ADS-B
Thu 08:39:16 AM 46.8200 -5.7640 250° West 487 560 33,000  Level FlightAware ADS-B
Thu 08:40:00 AM 46.7860 -5.8950 249° West 484 557 33,000  Level FlightAware ADS-B
Thu 08:40:42 AM 46.7530 -6.0200 249° West 481 554 33,000  Level FlightAware ADS-B
Thu 08:41:26 AM 46.7180 -6.1560 249° West 481 554 33,000  Level FlightAware ADS-B
Thu 08:42:06 AM 46.6860 -6.2790 249° West 482 555 33,000  Level FlightAware ADS-B
Thu 08:42:50 AM 46.6500 -6.4130 249° West 482 555 33,000  Level FlightAware ADS-B
Thu 08:43:30 AM 46.6190 -6.5310 249° West 480 552 33,000  Level FlightAware ADS-B
Thu 08:44:07 AM 46.5920 -6.6290 248° West 480 552 33,000  Level FlightAware ADS-B
Thu 08:44:55 AM 46.5580 -6.7510 248° West 480 552 33,000  Level FlightAware ADS-B
Thu 08:47:00 AM 46.4789 -7.1283 253° West  Level Estimated
Thu 08:48:00 AM 46.4405 -7.3090 253° West  Level Estimated
Thu 08:49:00 AM 46.4018 -7.4894 253° West  Level Estimated
Thu 08:50:00 AM 46.3628 -7.6696 253° West  Level Estimated
Thu 08:51:00 AM 46.3235 -7.8495 253° West  Level Estimated
Thu 08:52:00 AM 46.2840 -8.0292 252° West  Level Estimated
Thu 08:53:00 AM 46.2442 -8.2086 252° West  Level Estimated
Thu 08:54:00 AM 46.2041 -8.3878 252° West  Level Estimated
Thu 08:55:00 AM 46.1637 -8.5667 252° West  Level Estimated
Thu 08:56:00 AM 46.1230 -8.7453 252° West  Level Estimated
Thu 08:57:00 AM 46.0821 -8.9237 252° West  Level Estimated
Thu 08:58:00 AM 46.0409 -9.1018 252° West  Level Estimated
Thu 08:59:00 AM 45.9994 -9.2796 251° West  Level Estimated
Thu 09:00:00 AM 45.9576 -9.4572 251° West  Level Estimated
Thu 09:01:00 AM 45.9156 -9.6344 251° West  Level Estimated
Thu 09:02:00 AM 45.8732 -9.8115 251° West  Level Estimated
Thu 09:03:00 AM 45.8307 -9.9882 251° West  Level Estimated
Thu 09:04:00 AM 45.7878 -10.1647 251° West  Level Estimated
Thu 09:05:00 AM 45.7447 -10.3409 251° West  Level Estimated
Thu 09:06:00 AM 45.7013 -10.5169 251° West  Level Estimated
Thu 09:07:00 AM 45.6576 -10.6925 250° West  Level Estimated
Thu 09:08:00 AM 45.6137 -10.8679 250° West  Level Estimated
Thu 09:09:00 AM 45.5695 -11.0430 250° West  Level Estimated
Thu 09:10:00 AM 45.5250 -11.2178 250° West  Level Estimated
Thu 09:11:00 AM 45.4802 -11.3924 250° West  Level Estimated
Thu 09:12:00 AM 45.4352 -11.5667 250° West  Level Estimated
Thu 09:13:00 AM 45.3899 -11.7407 250° West  Level Estimated
Thu 09:14:00 AM 45.3444 -11.9144 250° West  Level Estimated
Thu 09:15:00 AM 45.2986 -12.0879 249° West  Level Estimated
Thu 09:16:00 AM 45.2525 -12.2610 249° West  Level Estimated
Thu 09:17:00 AM 45.2062 -12.4339 249° West  Level Estimated
Thu 09:18:00 AM 45.1596 -12.6065 249° West  Level Estimated
Thu 09:19:00 AM 45.1128 -12.7788 249° West  Level Estimated
Thu 09:20:00 AM 45.0657 -12.9509 249° West  Level Estimated
Thu 09:21:00 AM 45.0183 -13.1226 249° West  Level Estimated
Thu 09:22:00 AM 44.9707 -13.2941 249° West  Level Estimated
Thu 09:23:00 AM 44.9229 -13.4653 248° West  Level Estimated
Thu 09:24:00 AM 44.8747 -13.6362 248° West  Level Estimated
Thu 09:25:00 AM 44.8264 -13.8068 248° West  Level Estimated
Thu 09:26:00 AM 44.7777 -13.9771 248° West  Level Estimated
Thu 09:27:00 AM 44.7288 -14.1471 248° West  Level Estimated
Thu 09:28:00 AM 44.6797 -14.3169 248° West  Level Estimated
Thu 09:29:00 AM 44.6303 -14.4863 248° West  Level Estimated
Thu 09:30:00 AM 44.5807 -14.6555 248° West  Level Estimated
Thu 09:31:00 AM 44.5308 -14.8244 248° West  Level Estimated
Thu 09:32:00 AM 44.4806 -14.9930 247° West  Level Estimated
Thu 09:33:00 AM 44.4302 -15.1613 247° West  Level Estimated
Thu 09:34:00 AM 44.3796 -15.3293 247° West  Level Estimated
Thu 09:35:00 AM 44.3287 -15.4970 247° West  Level Estimated
Thu 09:36:00 AM 44.2776 -15.6644 247° West  Level Estimated
Thu 09:37:00 AM 44.2262 -15.8316 247° West  Level Estimated
Thu 09:38:00 AM 44.1746 -15.9984 247° West  Level Estimated
Thu 09:39:00 AM 44.1227 -16.1649 247° West  Level Estimated
Thu 09:40:00 AM 44.0706 -16.3312 246° West  Level Estimated
Thu 09:41:00 AM 44.0183 -16.4972 246° West  Level Estimated
Thu 09:42:00 AM 43.9657 -16.6628 246° West  Level Estimated
Thu 09:43:00 AM 43.9129 -16.8282 246° West  Level Estimated
Thu 09:44:00 AM 43.8601 -16.9926 246° West  Level Estimated
Thu 09:45:00 AM 43.8070 -17.1567 246° West  Level Estimated
Thu 09:46:00 AM 43.7537 -17.3205 246° West  Level Estimated
Thu 09:47:00 AM 43.7002 -17.4840 246° West  Level Estimated
Thu 09:48:00 AM 43.6464 -17.6473 246° West  Level Estimated
Thu 09:49:00 AM 43.5924 -17.8102 245° Southwest  Level Estimated
Thu 09:50:00 AM 43.5382 -17.9728 245° Southwest  Level Estimated
Thu 09:51:00 AM 43.4837 -18.1352 245° Southwest  Level Estimated
Thu 09:52:00 AM 43.4290 -18.2972 245° Southwest  Level Estimated
Thu 09:53:00 AM 43.3741 -18.4590 245° Southwest  Level Estimated
Thu 09:54:00 AM 43.3190 -18.6205 245° Southwest  Level Estimated
Thu 09:55:00 AM 43.2636 -18.7816 245° Southwest  Level Estimated
Thu 09:56:00 AM 43.2080 -18.9425 245° Southwest  Level Estimated
Thu 09:57:00 AM 43.1522 -19.1031 245° Southwest  Level Estimated
Thu 09:58:00 AM 43.0961 -19.2634 244° Southwest  Level Estimated
Thu 09:59:00 AM 43.0398 -19.4234 244° Southwest  Level Estimated
Thu 10:00:00 AM 42.9833 -19.5831 244° Southwest  Level Estimated
Thu 10:01:00 AM 42.9266 -19.7425 244° Southwest  Level Estimated
Thu 10:02:00 AM 42.8697 -19.9016 244° Southwest  Level Estimated
Thu 10:03:00 AM 42.8125 -20.0604 244° Southwest  Level Estimated
Thu 10:04:00 AM 42.7552 -20.2190 244° Southwest  Level Estimated
Thu 10:05:00 AM 42.6976 -20.3772 244° Southwest  Level Estimated
Thu 10:06:00 AM 42.6398 -20.5351 244° Southwest  Level Estimated
Thu 10:07:00 AM 42.5817 -20.6928 243° Southwest  Level Estimated
Thu 10:08:00 AM 42.5235 -20.8501 243° Southwest  Level Estimated
Thu 10:09:00 AM 42.4650 -21.0072 243° Southwest  Level Estimated
Thu 10:10:00 AM 42.4064 -21.1640 243° Southwest  Level Estimated
Thu 10:11:00 AM 42.3475 -21.3204 243° Southwest  Level Estimated
Thu 10:12:00 AM 42.2884 -21.4766 243° Southwest  Level Estimated
Thu 10:13:00 AM 42.2291 -21.6325 243° Southwest  Level Estimated
Thu 10:14:00 AM 42.1696 -21.7881 243° Southwest  Level Estimated
Thu 10:15:00 AM 42.1098 -21.9434 243° Southwest  Level Estimated
Thu 10:16:00 AM 42.0499 -22.0984 243° Southwest  Level Estimated
Thu 10:17:00 AM 41.9897 -22.2531 242° Southwest  Level Estimated
Thu 10:18:00 AM 41.9294 -22.4075 242° Southwest  Level Estimated
Thu 10:19:00 AM 41.8688 -22.5617 242° Southwest  Level Estimated
Thu 10:20:00 AM 41.8081 -22.7155 242° Southwest  Level Estimated
Thu 10:21:00 AM 41.7471 -22.8690 242° Southwest  Level Estimated
Thu 10:22:00 AM 41.6859 -23.0223 242° Southwest  Level Estimated
Thu 10:23:00 AM 41.6245 -23.1753 242° Southwest  Level Estimated
Thu 10:24:00 AM 41.5630 -23.3279 242° Southwest  Level Estimated
Thu 10:25:00 AM 41.5012 -23.4803 242° Southwest  Level Estimated
Thu 10:26:00 AM 41.4392 -23.6324 242° Southwest  Level Estimated
Thu 10:27:00 AM 41.3770 -23.7842 241° Southwest  Level Estimated
Thu 10:28:00 AM 41.3146 -23.9357 241° Southwest  Level Estimated
Thu 10:29:00 AM 41.2521 -24.0869 241° Southwest  Level Estimated
Thu 10:29:18 AM 42.4740 -25.6820 241° Southwest 495 570 33,000  Level FlightAware ADS-B
Thu 10:29:54 AM 42.4470 -25.7690 247° West 495 570 33,000  Level FlightAware ADS-B
Thu 10:30:00 AM 41.1893 -24.2379 241° Southwest  Level Estimated
Thu 10:30:44 AM 42.4090 -25.8910 247° West 495 570 33,000  Level FlightAware ADS-B
Thu 10:31:20 AM 42.3820 -25.9780 247° West 495 570 33,000  Level FlightAware ADS-B
Thu 10:34:00 AM 42.1976 -26.3737 238° Southwest  Level Estimated
Thu 10:35:00 AM 42.1281 -26.5215 238° Southwest  Level Estimated
Thu 10:35:43 AM 42.1400 -26.7520 238° Southwest 500 575 33,000  Level FlightAware ADS-B
Thu 10:36:34 AM 42.0920 -26.8970 246° West 501 577 33,000  Level FlightAware ADS-B
Thu 10:37:56 AM 42.0140 -27.1420 247° West 502 578 33,000  Level FlightAware ADS-B
Thu 10:38:35 AM 41.9830 -27.2370 246° West 502 578 33,000  Level FlightAware ADS-B
Thu 10:39:19 AM 41.9310 -27.3970 246° West 502 578 33,000  Level FlightAware ADS-B
Thu 10:40:15 AM 41.8930 -27.5130 246° West 504 580 33,000  Level FlightAware ADS-B
Thu 10:42:00 AM 41.7679 -27.7673 237° Southwest  Level Estimated
Thu 10:42:41 AM 41.7450 -27.9580 236° Southwest 507 583 33,000  Level FlightAware ADS-B
Thu 10:43:00 AM 41.6962 -27.9121 236° Southwest  Level Estimated
Thu 10:43:45 AM 41.6820 -28.1450 246° West 507 583 33,000  Level FlightAware ADS-B
Thu 10:44:22 AM 41.6380 -28.2730 245° Southwest 508 585 33,000  Level FlightAware ADS-B
Thu 10:44:59 AM 41.6070 -28.3630 245° Southwest 508 585 33,000  Level FlightAware ADS-B
Thu 10:46:04 AM 41.5390 -28.5660 246° West 508 585 33,000  Level FlightAware ADS-B
Thu 10:46:48 AM 41.5140 -28.6400 246° West 508 585 33,000  Level FlightAware ADS-B
Thu 10:47:37 AM 41.4720 -28.7590 245° Southwest 508 585 33,000  Level FlightAware ADS-B
Thu 10:48:15 AM 41.4120 -28.9380 246° West 507 583 33,000  Level FlightAware ADS-B
Thu 10:49:27 AM 41.3550 -29.1010 245° Southwest 507 583 33,000  Level FlightAware ADS-B
Thu 10:50:04 AM 41.3240 -29.1900 245° Southwest 507 583 33,000  Level FlightAware ADS-B
Thu 10:50:53 AM 41.2820 -29.3080 245° Southwest 507 583 33,000  Level FlightAware ADS-B
Thu 10:51:50 AM 41.1980 -29.5450 245° Southwest 507 583 33,000  Level FlightAware ADS-B
Thu 10:52:30 AM 41.1800 -29.5960 245° Southwest 507 583 33,000  Level FlightAware ADS-B
Thu 10:53:06 AM 41.1480 -29.6820 244° Southwest 507 583 33,000  Level FlightAware ADS-B
Thu 10:53:53 AM 41.1070 -29.7940 244° Southwest 507 583 33,000  Level FlightAware ADS-B
Thu 10:54:29 AM 41.0760 -29.8790 244° Southwest 507 583 33,000  Level FlightAware ADS-B
Thu 10:55:18 AM 41.0330 -29.9960 244° Southwest 507 583 33,000  Level FlightAware ADS-B
Thu 10:55:54 AM 41.0020 -30.0810 244° Southwest 507 583 33,000  Level FlightAware ADS-B
Thu 10:56:30 AM 40.9700 -30.1670 244° Southwest 507 583 33,000  Level FlightAware ADS-B
Thu 10:57:18 AM 40.9280 -30.2800 244° Southwest 507 583 33,000  Level FlightAware ADS-B
Thu 10:57:54 AM 40.8970 -30.3660 245° Southwest 507 583 33,000  Level FlightAware ADS-B
Thu 10:58:30 AM 40.8650 -30.4510 244° Southwest 507 583 33,000  Level FlightAware ADS-B
Thu 10:59:18 AM 40.8230 -30.5650 244° Southwest 507 583 33,000  Level FlightAware ADS-B
Thu 10:59:55 AM 40.7910 -30.6520 244° Southwest 507 583 33,000  Level FlightAware ADS-B
Thu 11:00:31 AM 40.7590 -30.7380 244° Southwest 507 583 33,000  Level FlightAware ADS-B
Thu 11:01:21 AM 40.7160 -30.8560 244° Southwest 507 583 33,000 14 Level FlightAware ADS-B
Thu 11:03:00 AM 40.5895 -31.0836 234° Southwest  Level Estimated
Thu 11:04:00 AM 40.5127 -31.2212 234° Southwest  Level Estimated
Thu 11:05:00 AM 40.4357 -31.3584 234° Southwest  Level Estimated
Thu 11:06:00 AM 40.3585 -31.4953 234° Southwest  Level Estimated
Thu 11:07:00 AM 40.2811 -31.6319 233° Southwest  Level Estimated
Thu 11:08:00 AM 40.2036 -31.7682 233° Southwest  Level Estimated
Thu 11:09:00 AM 40.1259 -31.9041 233° Southwest  Level Estimated
Thu 11:10:00 AM 40.0481 -32.0398 233° Southwest  Level Estimated
Thu 11:11:00 AM 39.9701 -32.1752 233° Southwest  Level Estimated
Thu 11:12:00 AM 39.8920 -32.3102 233° Southwest  Level Estimated
Thu 11:13:00 AM 39.8137 -32.4449 233° Southwest  Level Estimated
Thu 11:14:00 AM 39.7353 -32.5793 233° Southwest  Level Estimated
Thu 11:15:00 AM 39.6567 -32.7135 233° Southwest  Level Estimated
Thu 11:16:00 AM 39.5779 -32.8473 233° Southwest  Level Estimated
Thu 11:17:00 AM 39.4990 -32.9808 233° Southwest  Level Estimated
Thu 11:18:00 AM 39.4199 -33.1140 232° Southwest  Level Estimated
Thu 11:19:00 AM 39.3407 -33.2469 232° Southwest  Level Estimated
Thu 11:20:00 AM 39.2613 -33.3795 232° Southwest  Level Estimated
Thu 11:21:00 AM 39.1818 -33.5118 232° Southwest  Level Estimated
Thu 11:22:00 AM 39.1021 -33.6438 232° Southwest  Level Estimated
Thu 11:23:00 AM 39.0223 -33.7755 232° Southwest  Level Estimated
Thu 11:24:00 AM 38.9424 -33.9069 232° Southwest  Level Estimated
Thu 11:25:00 AM 38.8623 -34.0380 232° Southwest  Level Estimated
Thu 11:26:00 AM 38.7820 -34.1689 232° Southwest  Level Estimated
Thu 11:27:00 AM 38.7016 -34.2994 232° Southwest  Level Estimated
Thu 11:28:00 AM 38.6210 -34.4296 232° Southwest  Level Estimated
Thu 11:29:00 AM 38.5404 -34.5596 232° Southwest  Level Estimated
Thu 11:30:00 AM 38.4595 -34.6892 231° Southwest  Level Estimated
Thu 11:31:00 AM 38.3785 -34.8186 231° Southwest  Level Estimated
Thu 11:32:00 AM 38.2974 -34.9476 231° Southwest  Level Estimated
Thu 11:33:00 AM 38.2162 -35.0764 231° Southwest  Level Estimated
Thu 11:34:00 AM 38.1348 -35.2049 231° Southwest  Level Estimated
Thu 11:35:00 AM 38.0532 -35.3331 231° Southwest  Level Estimated
Thu 11:36:00 AM 37.9715 -35.4610 231° Southwest  Level Estimated
Thu 11:37:00 AM 37.8897 -35.5886 231° Southwest  Level Estimated
Thu 11:38:00 AM 37.8078 -35.7160 231° Southwest  Level Estimated
Thu 11:39:00 AM 37.7257 -35.8431 231° Southwest  Level Estimated
Thu 11:40:00 AM 37.6435 -35.9699 231° Southwest  Level Estimated
Thu 11:41:00 AM 37.5611 -36.0964 231° Southwest  Level Estimated
Thu 11:42:00 AM 37.4786 -36.2226 231° Southwest  Level Estimated
Thu 11:43:00 AM 37.3960 -36.3485 230° Southwest  Level Estimated
Thu 11:44:00 AM 37.3132 -36.4742 230° Southwest  Level Estimated
Thu 11:45:00 AM 37.2303 -36.5996 230° Southwest  Level Estimated
Thu 11:46:00 AM 37.1473 -36.7247 230° Southwest  Level Estimated
Thu 11:47:00 AM 37.0641 -36.8495 230° Southwest  Level Estimated
Thu 11:48:00 AM 36.9808 -36.9741 230° Southwest  Level Estimated
Thu 11:49:00 AM 36.8974 -37.0984 230° Southwest  Level Estimated
Thu 11:50:00 AM 36.8139 -37.2224 230° Southwest  Level Estimated
Thu 11:51:00 AM 36.7302 -37.3462 230° Southwest  Level Estimated
Thu 11:52:00 AM 36.6464 -37.4697 230° Southwest  Level Estimated
Thu 11:53:00 AM 36.5624 -37.5929 230° Southwest  Level Estimated
Thu 11:54:00 AM 36.4784 -37.7158 230° Southwest  Level Estimated
Thu 11:55:00 AM 36.3942 -37.8385 230° Southwest  Level Estimated
Thu 11:56:00 AM 36.3099 -37.9609 230° Southwest  Level Estimated
Thu 11:57:00 AM 36.2254 -38.0831 229° Southwest  Level Estimated
Thu 11:58:00 AM 36.1409 -38.2050 229° Southwest  Level Estimated
Thu 11:59:00 AM 36.0562 -38.3266 229° Southwest  Level Estimated
Thu 12:00:00 PM 35.9714 -38.4480 229° Southwest  Level Estimated
Thu 12:01:00 PM 35.8865 -38.5691 229° Southwest  Level Estimated
Thu 12:02:00 PM 35.8014 -38.6899 229° Southwest  Level Estimated
Thu 12:03:00 PM 35.7163 -38.8105 229° Southwest  Level Estimated
Thu 12:04:00 PM 35.6310 -38.9308 229° Southwest  Level Estimated
Thu 12:05:00 PM 35.5456 -39.0509 229° Southwest  Level Estimated
Thu 12:06:00 PM 35.4600 -39.1707 229° Southwest  Level Estimated
Thu 12:07:00 PM 35.3744 -39.2902 229° Southwest  Level Estimated
Thu 12:08:00 PM 35.2886 -39.4096 229° Southwest  Level Estimated
Thu 12:09:00 PM 35.2027 -39.5286 229° Southwest  Level Estimated
Thu 12:09:36 PM 34.0000 -40.0000 234° Southwest 487 560 34,000  Level New York Oceanic (ODAPS)
Thu 12:10:00 PM 35.1167 -39.6474 229° Southwest  Level Estimated
Thu 12:11:00 PM 35.0306 -39.7660 228° Southwest  Level Estimated
Thu 12:12:00 PM 34.9444 -39.8843 228° Southwest  Level Estimated
Thu 12:13:00 PM 34.8581 -40.0023 228° Southwest  Level Estimated
Thu 12:14:00 PM 34.7716 -40.1201 228° Southwest  Level Estimated
Thu 12:15:00 PM 34.6850 -40.2377 228° Southwest  Level Estimated
Thu 12:16:00 PM 33.4341 -40.9125 233° Southwest 487 560 34,000  Level FlightAware Transoceanic
Thu 12:17:00 PM 33.3527 -41.0419 233° Southwest 487 560 34,000  Level FlightAware Transoceanic
Thu 12:18:00 PM 33.2711 -41.1710 233° Southwest 487 560 34,000  Level FlightAware Transoceanic
Thu 12:19:00 PM 33.1895 -41.2999 233° Southwest 487 560 34,000  Level FlightAware Transoceanic
Thu 12:20:00 PM 33.1077 -41.4286 233° Southwest 487 560 34,000  Level FlightAware Transoceanic
Thu 12:21:00 PM 33.0258 -41.5570 233° Southwest 487 560 34,000  Level FlightAware Transoceanic
Thu 12:22:00 PM 32.9437 -41.6852 233° Southwest 487 560 34,000  Level FlightAware Transoceanic
Thu 12:23:00 PM 32.8615 -41.8131 233° Southwest 487 560 34,000 952 Level FlightAware Transoceanic
Thu 12:23:03 PM 32.8667 -41.8000 233° Southwest 485 558 35,000  Climbing New York Oceanic (ODAPS)
Thu 12:24:00 PM 32.7792 -41.9408 232° Southwest 487 560 34,000 -513 Descending FlightAware Transoceanic
Thu 12:25:00 PM 32.6968 -42.0683 232° Southwest 487 560 34,000  Level FlightAware Transoceanic
Thu 12:26:00 PM 32.6142 -42.1955 232° Southwest 487 560 34,000  Level FlightAware Transoceanic
Thu 12:27:00 PM 32.5315 -42.3225 232° Southwest 487 560 34,000  Level FlightAware Transoceanic
Thu 12:28:00 PM 32.4487 -42.4493 232° Southwest 487 560 34,000 500 Level FlightAware Transoceanic
Thu 12:29:00 PM 32.3705 -42.5640 232° Southwest 485 558 35,000 500 Climbing FlightAware Transoceanic
Thu 12:30:00 PM 32.2873 -42.6905 232° Southwest 485 558 35,000  Level FlightAware Transoceanic
Thu 12:31:00 PM 32.2040 -42.8167 232° Southwest 485 558 35,000  Level FlightAware Transoceanic
Thu 12:32:00 PM 32.1207 -42.9428 232° Southwest 485 558 35,000  Level FlightAware Transoceanic
Thu 12:33:00 PM 32.0371 -43.0686 232° Southwest 485 558 35,000  Level FlightAware Transoceanic
Thu 12:34:00 PM 31.9535 -43.1942 232° Southwest 485 558 35,000  Level FlightAware Transoceanic
Thu 12:35:00 PM 31.8697 -43.3195 232° Southwest 485 558 35,000  Level FlightAware Transoceanic
Thu 12:36:00 PM 31.7858 -43.4447 232° Southwest 485 558 35,000  Level FlightAware Transoceanic
Thu 12:37:00 PM 31.7018 -43.5696 232° Southwest 485 558 35,000  Level FlightAware Transoceanic
Thu 12:38:00 PM 31.6177 -43.6942 232° Southwest 485 558 35,000  Level FlightAware Transoceanic
Thu 12:39:00 PM 31.5334 -43.8187 231° Southwest 485 558 35,000  Level FlightAware Transoceanic
Thu 12:40:00 PM 31.4490 -43.9429 231° Southwest 485 558 35,000  Level FlightAware Transoceanic
Thu 12:41:00 PM 31.3645 -44.0669 231° Southwest 485 558 35,000  Level FlightAware Transoceanic
Thu 12:42:00 PM 31.2799 -44.1907 231° Southwest 485 558 35,000  Level FlightAware Transoceanic
Thu 12:43:00 PM 31.1952 -44.3143 231° Southwest 485 558 35,000  Level FlightAware Transoceanic
Thu 12:43:22 PM 31.1500 -44.3667 231° Southwest 482 555 35,000  Level New York Oceanic (ODAPS)
Thu 12:44:00 PM 31.1103 -44.4376 231° Southwest 485 558 35,000  Level FlightAware Transoceanic
Thu 12:45:00 PM 31.0254 -44.5607 231° Southwest 485 558 35,000  Level FlightAware Transoceanic
Thu 12:46:00 PM 30.9403 -44.6836 231° Southwest 485 558 35,000  Level FlightAware Transoceanic
Thu 12:47:00 PM 30.8551 -44.8063 231° Southwest 485 558 35,000  Level FlightAware Transoceanic
Thu 12:48:00 PM 30.7698 -44.9287 231° Southwest 485 558 35,000  Level FlightAware Transoceanic
Thu 12:49:00 PM 30.6445 -45.0963 231° Southwest 482 555 35,000  Level FlightAware Transoceanic
Thu 12:50:00 PM 30.5599 -45.2171 231° Southwest 482 555 35,000  Level FlightAware Transoceanic
Thu 12:51:00 PM 30.4751 -45.3378 231° Southwest 482 555 35,000  Level FlightAware Transoceanic
Thu 12:52:00 PM 30.3903 -45.4582 231° Southwest 482 555 35,000  Level FlightAware Transoceanic
Thu 12:53:00 PM 30.3053 -45.5784 231° Southwest 482 555 35,000  Level FlightAware Transoceanic
Thu 12:54:00 PM 30.2202 -45.6985 231° Southwest 482 555 35,000  Level FlightAware Transoceanic
Thu 12:55:00 PM 30.1350 -45.8183 231° Southwest 482 555 35,000  Level FlightAware Transoceanic
Thu 12:56:00 PM 30.0497 -45.9379 230° Southwest 482 555 35,000  Level FlightAware Transoceanic
Thu 12:57:00 PM 29.9643 -46.0573 230° Southwest 482 555 35,000  Level FlightAware Transoceanic
Thu 12:58:00 PM 29.8788 -46.1765 230° Southwest 482 555 35,000  Level FlightAware Transoceanic
Thu 12:59:00 PM 29.7932 -46.2955 230° Southwest 482 555 35,000  Level FlightAware Transoceanic
Thu 01:00:00 PM 29.7075 -46.4142 230° Southwest 482 555 35,000  Level FlightAware Transoceanic
Thu 01:01:00 PM 29.6216 -46.5328 230° Southwest 482 555 35,000  Level FlightAware Transoceanic
Thu 01:02:00 PM 29.5357 -46.6512 230° Southwest 482 555 35,000  Level FlightAware Transoceanic
Thu 01:03:00 PM 29.4496 -46.7694 230° Southwest 482 555 35,000  Level FlightAware Transoceanic
Thu 01:03:38 PM 29.4167 -46.8167 230° Southwest 477 549 35,000  Level New York Oceanic (ODAPS)
Thu 01:04:00 PM 29.3635 -46.8874 230° Southwest 482 555 35,000  Level FlightAware Transoceanic
Thu 01:05:00 PM 29.2772 -47.0052 230° Southwest 482 555 35,000  Level FlightAware Transoceanic
Thu 01:06:00 PM 29.1909 -47.1227 230° Southwest 482 555 35,000  Level FlightAware Transoceanic
Thu 01:07:00 PM 29.1044 -47.2401 230° Southwest 482 555 35,000  Level FlightAware Transoceanic
Thu 01:08:00 PM 29.0179 -47.3573 230° Southwest 482 555 35,000  Level FlightAware Transoceanic
Thu 01:09:00 PM 28.9312 -47.4743 230° Southwest 482 555 35,000  Level FlightAware Transoceanic
Thu 01:10:00 PM 28.8195 -47.6261 230° Southwest 477 549 35,000  Level FlightAware Transoceanic
Thu 01:11:00 PM 28.7338 -47.7410 230° Southwest 477 549 35,000  Level FlightAware Transoceanic
Thu 01:12:00 PM 28.6480 -47.8557 230° Southwest 477 549 35,000  Level FlightAware Transoceanic
Thu 01:13:00 PM 28.5621 -47.9702 229° Southwest 477 549 35,000  Level FlightAware Transoceanic
Thu 01:14:00 PM 28.4761 -48.0845 229° Southwest 477 549 35,000  Level FlightAware Transoceanic
Thu 01:15:00 PM 28.3900 -48.1987 229° Southwest 477 549 35,000  Level FlightAware Transoceanic
Thu 01:16:00 PM 28.3038 -48.3126 229° Southwest 477 549 35,000  Level FlightAware Transoceanic
Thu 01:17:00 PM 28.2175 -48.4263 229° Southwest 477 549 35,000  Level FlightAware Transoceanic
Thu 01:18:00 PM 28.1312 -48.5399 229° Southwest 477 549 35,000  Level FlightAware Transoceanic
Thu 01:19:00 PM 28.0447 -48.6533 229° Southwest 477 549 35,000  Level FlightAware Transoceanic
Thu 01:20:00 PM 27.9582 -48.7665 229° Southwest 477 549 35,000  Level FlightAware Transoceanic
Thu 01:21:00 PM 27.8715 -48.8796 229° Southwest 477 549 35,000  Level FlightAware Transoceanic
Thu 01:22:00 PM 27.7847 -48.9924 229° Southwest 477 549 35,000  Level FlightAware Transoceanic
Thu 01:23:00 PM 27.6979 -49.1051 229° Southwest 477 549 35,000  Level FlightAware Transoceanic
Thu 01:23:54 PM 27.6667 -49.1333 229° Southwest 473 544 35,000  Level New York Oceanic (ODAPS)
Thu 01:24:00 PM 27.6110 -49.2175 229° Southwest 477 549 35,000  Level FlightAware Transoceanic
Thu 01:25:00 PM 27.5240 -49.3298 229° Southwest 477 549 35,000  Level FlightAware Transoceanic
Thu 01:26:00 PM 27.4369 -49.4420 229° Southwest 477 549 35,000  Level FlightAware Transoceanic
Thu 01:27:00 PM 27.3497 -49.5539 229° Southwest 477 549 35,000  Level FlightAware Transoceanic
Thu 01:28:00 PM 27.2624 -49.6657 229° Southwest 477 549 35,000  Level FlightAware Transoceanic
Thu 01:29:00 PM 27.1750 -49.7773 229° Southwest 477 549 35,000  Level FlightAware Transoceanic
Thu 01:30:00 PM 27.0956 -49.8768 229° Southwest 473 544 35,000  Level FlightAware Transoceanic
Thu 01:31:00 PM 27.0000 -50.0000 221° Southwest 473 544 35,000  Level FlightAware Transoceanic
Thu 01:31:34 PM 27.0000 -50.0000 221° Southwest 483 556 35,000  Level New York Oceanic (ODAPS)
Thu 01:32:00 PM 26.8990 -50.0984 221° Southwest 473 544 35,000  Level FlightAware Transoceanic
Thu 01:33:00 PM 26.7980 -50.1967 221° Southwest 473 544 35,000  Level FlightAware Transoceanic
Thu 01:34:00 PM 26.6968 -50.2947 221° Southwest 473 544 35,000  Level FlightAware Transoceanic
Thu 01:35:00 PM 26.5957 -50.3926 221° Southwest 473 544 35,000  Level FlightAware Transoceanic
Thu 01:36:00 PM 26.4944 -50.4903 221° Southwest 473 544 35,000  Level FlightAware Transoceanic
Thu 01:37:00 PM 26.3931 -50.5879 221° Southwest 473 544 35,000  Level FlightAware Transoceanic
Thu 01:38:00 PM 26.2917 -50.6853 221° Southwest 483 556 35,000  Level FlightAware Transoceanic
Thu 01:39:00 PM 26.1903 -50.7825 221° Southwest 483 556 35,000  Level FlightAware Transoceanic
Thu 01:40:00 PM 26.0887 -50.8795 221° Southwest 483 556 35,000  Level FlightAware Transoceanic
Thu 01:41:00 PM 25.9872 -50.9764 221° Southwest 483 556 35,000  Level FlightAware Transoceanic
Thu 01:42:00 PM 25.8855 -51.0731 221° Southwest 483 556 35,000  Level FlightAware Transoceanic
Thu 01:43:00 PM 25.7838 -51.1697 220° Southwest 483 556 35,000 509 Level FlightAware Transoceanic
Thu 01:43:46 PM 25.7833 -51.1667 221° Southwest 487 560 35,900  Climbing New York Oceanic (ODAPS)
Thu 01:44:00 PM 25.6820 -51.2660 220° Southwest 483 556 35,000  Descending FlightAware Transoceanic
Thu 01:44:10 PM 25.7333 -51.2167 220° Southwest 486 559 35,900  Climbing New York Oceanic (ODAPS)
Thu 01:45:00 PM 25.5802 -51.3622 220° Southwest 483 556 35,000 -491 Descending FlightAware Transoceanic
Thu 01:46:00 PM 25.4783 -51.4583 220° Southwest 483 556 35,000  Level FlightAware Transoceanic
Thu 01:47:00 PM 25.3763 -51.5541 220° Southwest 483 556 35,000  Level FlightAware Transoceanic
Thu 01:48:00 PM 25.2743 -51.6499 220° Southwest 483 556 35,000  Level FlightAware Transoceanic
Thu 01:49:00 PM 25.1722 -51.7454 220° Southwest 483 556 35,000 783 Level FlightAware Transoceanic
Thu 01:49:09 PM 25.2500 -51.6833 220° Southwest 486 559 35,900 900 Climbing New York Oceanic (ODAPS)
Thu 01:50:00 PM 25.1174 -51.7959 220° Southwest 486 559 35,900  Level FlightAware Transoceanic
Thu 01:51:00 PM 25.0145 -51.8919 220° Southwest 486 559 35,900  Level FlightAware Transoceanic
Thu 01:52:00 PM 24.9116 -51.9877 220° Southwest 486 559 35,900  Level FlightAware Transoceanic
Thu 01:53:00 PM 24.8086 -52.0834 220° Southwest 486 559 35,900  Level FlightAware Transoceanic
Thu 01:54:00 PM 24.7055 -52.1789 220° Southwest 486 559 35,900  Level FlightAware Transoceanic
Thu 01:55:00 PM 24.6297 -52.2594 220° Southwest 486 559 35,900  Level FlightAware Transoceanic
Thu 01:56:00 PM 24.5261 -52.3548 220° Southwest 486 559 35,900  Level FlightAware Transoceanic
Thu 01:57:00 PM 24.4224 -52.4501 220° Southwest 486 559 35,900  Level FlightAware Transoceanic
Thu 01:58:00 PM 24.3187 -52.5452 220° Southwest 486 559 35,900  Level FlightAware Transoceanic
Thu 01:59:00 PM 24.2149 -52.6402 220° Southwest 486 559 35,900  Level FlightAware Transoceanic
Thu 02:00:00 PM 24.1111 -52.7351 220° Southwest 486 559 35,900  Level FlightAware Transoceanic
Thu 02:01:00 PM 24.0072 -52.8297 220° Southwest 486 559 35,900  Level FlightAware Transoceanic
Thu 02:02:00 PM 23.9032 -52.9242 220° Southwest 486 559 35,900  Level FlightAware Transoceanic
Thu 02:03:00 PM 23.7992 -53.0186 220° Southwest 486 559 35,900  Level FlightAware Transoceanic
Thu 02:04:00 PM 23.6951 -53.1128 220° Southwest 486 559 35,900  Level FlightAware Transoceanic
Thu 02:04:25 PM 23.6833 -53.1167 220° Southwest 480 552 35,900  Level New York Oceanic (ODAPS)
Thu 02:05:00 PM 23.5910 -53.2069 220° Southwest 486 559 35,900  Level FlightAware Transoceanic
Thu 02:06:00 PM 23.4868 -53.3008 220° Southwest 486 559 35,900  Level FlightAware Transoceanic
Thu 02:07:00 PM 23.3826 -53.3946 220° Southwest 486 559 35,900  Level FlightAware Transoceanic
Thu 02:08:00 PM 23.2783 -53.4882 219° Southwest 486 559 35,900  Level FlightAware Transoceanic
Thu 02:09:00 PM 23.1739 -53.5816 219° Southwest 486 559 35,900  Level FlightAware Transoceanic
Thu 02:09:02 PM 23.2500 -53.5167 219° Southwest 479 551 35,900  Level New York Oceanic (ODAPS)
Thu 02:10:00 PM 23.0704 -53.6682 219° Southwest 480 552 35,900  Level FlightAware Transoceanic
Thu 02:11:00 PM 22.9681 -53.7596 219° Southwest 480 552 35,900  Level FlightAware Transoceanic
Thu 02:12:00 PM 22.8657 -53.8509 219° Southwest 480 552 35,900  Level FlightAware Transoceanic
Thu 02:13:00 PM 22.7632 -53.9420 219° Southwest 480 552 35,900  Level FlightAware Transoceanic
Thu 02:14:00 PM 22.6607 -54.0331 219° Southwest 480 552 35,900  Level FlightAware Transoceanic
Thu 02:15:00 PM 22.6264 -54.0717 219° Southwest 479 551 35,900  Level FlightAware Transoceanic
Thu 02:16:00 PM 22.5223 -54.1637 219° Southwest 479 551 35,900  Level FlightAware Transoceanic
Thu 02:17:00 PM 22.4181 -54.2556 219° Southwest 479 551 35,900  Level FlightAware Transoceanic
Thu 02:18:00 PM 22.3139 -54.3473 219° Southwest 479 551 35,900  Level FlightAware Transoceanic
Thu 02:19:00 PM 22.2096 -54.4389 219° Southwest 479 551 35,900  Level FlightAware Transoceanic
Thu 02:20:00 PM 22.1052 -54.5304 219° Southwest 479 551 35,900  Level FlightAware Transoceanic
Thu 02:21:00 PM 22.0009 -54.6217 219° Southwest 479 551 35,900 53 Level FlightAware Transoceanic
Thu 02:21:53 PM 21.9500 -54.6500 219° Southwest 476 548 36,000  Climbing New York Oceanic (ODAPS)
Thu 02:22:00 PM 21.8964 -54.7129 219° Southwest 479 551 35,900  Descending FlightAware Transoceanic
Thu 02:22:11 PM 21.9167 -54.6833 219° Southwest 477 549 36,000  Climbing New York Oceanic (ODAPS)
Thu 02:23:00 PM 21.7920 -54.8040 219° Southwest 479 551 35,900 -55 Descending FlightAware Transoceanic
Thu 02:24:00 PM 21.6874 -54.8949 219° Southwest 479 551 35,900 59 Level FlightAware Transoceanic
Thu 02:24:41 PM 21.6500 -54.9167 219° Southwest 475 547 36,000  Climbing New York Oceanic (ODAPS)
Thu 02:25:00 PM 21.5828 -54.9857 219° Southwest 479 551 35,900 -76 Descending FlightAware Transoceanic
Thu 02:26:00 PM 21.4782 -55.0763 219° Southwest 479 551 35,900  Level FlightAware Transoceanic
Thu 02:27:00 PM 21.3735 -55.1669 219° Southwest 479 551 35,900 69 Level FlightAware Transoceanic
Thu 02:27:27 PM 21.3833 -55.1500 219° Southwest 476 548 36,000 100 Climbing New York Oceanic (ODAPS)
Thu 02:28:00 PM 21.3025 -55.2183 219° Southwest 477 549 36,000  Level FlightAware Transoceanic
Thu 02:29:00 PM 21.1999 -55.3070 219° Southwest 477 549 36,000  Level FlightAware Transoceanic
Thu 02:30:00 PM 21.0974 -55.3956 219° Southwest 477 549 36,000  Level FlightAware Transoceanic
Thu 02:31:00 PM 21.0282 -55.4556 219° Southwest 475 547 36,000  Level FlightAware Transoceanic
Thu 02:32:00 PM 20.9243 -55.5449 219° Southwest 475 547 36,000  Level FlightAware Transoceanic
Thu 02:33:00 PM 20.7716 -55.6773 219° Southwest 476 548 36,000  Level FlightAware Transoceanic
Thu 02:34:00 PM 20.6695 -55.7648 219° Southwest 476 548 36,000  Level FlightAware Transoceanic
Thu 02:35:00 PM 20.5673 -55.8522 219° Southwest 476 548 36,000  Level FlightAware Transoceanic
Thu 02:36:00 PM 20.4651 -55.9394 219° Southwest 476 548 36,000  Level FlightAware Transoceanic
Thu 02:37:00 PM 20.3629 -56.0265 219° Southwest 476 548 36,000  Level FlightAware Transoceanic
Thu 02:38:00 PM 20.2606 -56.1135 219° Southwest 476 548 36,000  Level FlightAware Transoceanic
Thu 02:39:00 PM 20.1583 -56.2004 219° Southwest 476 548 36,000  Level FlightAware Transoceanic
Thu 02:40:00 PM 20.0559 -56.2872 219° Southwest 476 548 36,000  Level FlightAware Transoceanic
Thu 02:41:00 PM 19.9535 -56.3739 218° Southwest 476 548 36,000  Level FlightAware Transoceanic
Thu 02:42:00 PM 19.8510 -56.4604 218° Southwest 476 548 36,000  Level FlightAware Transoceanic
Thu 02:43:00 PM 19.7486 -56.5469 218° Southwest 476 548 36,000  Level FlightAware Transoceanic
Thu 02:44:00 PM 19.6460 -56.6332 218° Southwest 476 548 36,000  Level FlightAware Transoceanic
Thu 02:44:58 PM 19.5500 -56.7000 219° Southwest 491 565 36,000  Level New York Oceanic (ODAPS)
Thu 02:45:00 PM 19.5434 -56.7194 218° Southwest 476 548 36,000  Level FlightAware Transoceanic
Thu 02:46:00 PM 19.4408 -56.8055 218° Southwest 476 548 36,000  Level FlightAware Transoceanic
Thu 02:47:00 PM 19.3382 -56.8915 218° Southwest 476 548 36,000  Level FlightAware Transoceanic
Thu 02:48:00 PM 19.2355 -56.9774 218° Southwest 476 548 36,000  Level FlightAware Transoceanic
Thu 02:49:00 PM 19.1327 -57.0632 218° Southwest 476 548 36,000  Level FlightAware Transoceanic
Thu 02:50:00 PM 19.0299 -57.1489 218° Southwest 476 548 36,000  Level FlightAware Transoceanic
Thu 02:51:00 PM 18.8868 -57.2601 218° Southwest 491 565 36,000  Level FlightAware Transoceanic
Thu 02:52:00 PM 18.7761 -57.3530 218° Southwest 491 565 36,000  Level FlightAware Transoceanic
Thu 02:53:00 PM 18.6654 -57.4458 218° Southwest 491 565 36,000  Level FlightAware Transoceanic
Thu 02:54:00 PM 18.5546 -57.5384 218° Southwest 491 565 36,000  Level FlightAware Transoceanic
Thu 02:55:00 PM 18.4438 -57.6310 218° Southwest 491 565 36,000  Level FlightAware Transoceanic
Thu 02:56:00 PM 18.3329 -57.7234 218° Southwest 491 565 36,000  Level FlightAware Transoceanic
Thu 02:57:00 PM 18.2220 -57.8157 218° Southwest 491 565 36,000  Level FlightAware Transoceanic
Thu 02:58:00 PM 18.1110 -57.9079 218° Southwest 491 565 36,000  Level FlightAware Transoceanic
Thu 02:59:00 PM 18.0000 -58.0000 221° Southwest 491 565 36,000  Level FlightAware Transoceanic
Thu 03:00:00 PM 17.8983 -58.0924 221° Southwest 491 565 36,000  Level FlightAware Transoceanic
Thu 03:01:00 PM 17.7965 -58.1847 221° Southwest 491 565 36,000  Level FlightAware Transoceanic
Thu 03:02:00 PM 17.6947 -58.2769 221° Southwest 491 565 36,000  Level FlightAware Transoceanic
Thu 03:03:00 PM 17.5929 -58.3690 221° Southwest 491 565 36,000  Level FlightAware Transoceanic
Thu 03:04:00 PM 17.4910 -58.4610 221° Southwest 491 565 36,000  Level FlightAware Transoceanic
Thu 03:04:58 PM 17.4040 -58.5390 221° Southwest 504 580 36,000  Level FlightAware ADS-B
Thu 03:05:00 PM 17.3890 -58.5529 221° Southwest 491 565 36,000  Level FlightAware Transoceanic
Thu 03:05:34 PM 17.3430 -58.5940 221° Southwest 504 580 36,000  Level FlightAware ADS-B
Thu 03:06:13 PM 17.2830 -58.6490 221° Southwest 504 580 36,000  Level FlightAware ADS-B
Thu 03:06:57 PM 17.2130 -58.7110 220° Southwest 503 579 36,000  Level FlightAware ADS-B
Thu 03:07:33 PM 17.1430 -58.7740 221° Southwest 503 579 36,000  Level FlightAware ADS-B
Thu 03:08:15 PM 17.0710 -58.8370 220° Southwest 504 580 36,000  Level FlightAware ADS-B
Thu 03:08:55 PM 16.9900 -58.9110 221° Southwest 505 581 36,000  Level FlightAware ADS-B
Thu 03:09:51 PM 16.9040 -58.9880 221° Southwest 506 582 36,000  Level FlightAware ADS-B
Thu 03:10:31 PM 16.8380 -59.0470 221° Southwest 506 582 36,000  Level FlightAware ADS-B
Thu 03:11:34 PM 16.7220 -59.1510 221° Southwest 506 582 36,000  Level FlightAware ADS-B
Thu 03:12:11 PM 16.6330 -59.2290 220° Southwest 506 582 36,000  Level FlightAware ADS-B
Thu 03:12:56 PM 16.5540 -59.2990 220° Southwest 506 582 36,000  Level FlightAware ADS-B
Thu 03:13:31 PM 16.4980 -59.3500 221° Southwest 506 582 36,000  Level FlightAware ADS-B
Thu 03:14:16 PM 16.4120 -59.4260 220° Southwest 506 582 36,000  Level FlightAware ADS-B
Thu 03:15:01 PM 16.3300 -59.4990 221° Southwest 506 582 36,000  Level FlightAware ADS-B
Thu 03:15:41 PM 16.2590 -59.5620 220° Southwest 506 582 36,000 -370 Level FlightAware ADS-B
Thu 03:16:22 PM 16.1950 -59.6180 220° Southwest 504 580 35,500 -1,724 Descending FlightAware ADS-B
Thu 03:17:08 PM 16.1180 -59.6870 221° Southwest 503 579 33,500 -2,651 Descending FlightAware ADS-B
Thu 03:17:48 PM 16.0470 -59.7490 220° Southwest 501 577 31,700 -2,519 Descending FlightAware ADS-B
Thu 03:18:29 PM 15.9770 -59.8120 221° Southwest 491 565 30,100 -2,278 Descending FlightAware ADS-B
Thu 03:19:07 PM 15.9110 -59.8690 220° Southwest 480 552 28,700 -2,051 Descending FlightAware ADS-B
Thu 03:19:48 PM 15.8500 -59.9230 220° Southwest 471 542 27,400 -2,000 Descending FlightAware ADS-B
Thu 03:20:28 PM 15.7820 -59.9830 220° Southwest 461 531 26,000 -2,090 Descending FlightAware ADS-B
Thu 03:21:17 PM 15.7030 -60.0530 220° Southwest 454 522 24,300 -2,200 Descending FlightAware ADS-B
Thu 03:21:58 PM 15.6290 -60.1180 220° Southwest 451 519 22,700 -2,118 Descending FlightAware ADS-B
Thu 03:22:42 PM 15.5680 -60.1710 220° Southwest 446 513 21,300 -2,090 Descending FlightAware ADS-B
Thu 03:23:27 PM 15.4950 -60.2350 220° Southwest 436 502 19,600 -2,188 Descending FlightAware ADS-B
Thu 03:24:07 PM 15.4320 -60.2900 220° Southwest 427 491 18,200 -2,127 Descending FlightAware ADS-B
Thu 03:24:46 PM 15.3720 -60.3420 220° Southwest 422 486 16,800 -2,028 Descending FlightAware ADS-B
Thu 03:25:18 PM 15.3280 -60.3810 221° Southwest 417 480 15,800 -2,083 Descending FlightAware ADS-B
Thu 03:25:58 PM 15.2640 -60.4380 221° Southwest 412 474 14,300 -2,077 Descending FlightAware ADS-B
Thu 03:26:36 PM 15.2120 -60.4820 219° Southwest 410 472 13,100 -2,055 Descending FlightAware ADS-B
Thu 03:27:11 PM 15.1610 -60.5270 220° Southwest 413 475 11,800 -1,747 Descending FlightAware ADS-B
Thu 03:27:55 PM 15.0920 -60.5870 220° Southwest 393 452 10,800 -1,129 Descending FlightAware ADS-B
Thu 03:28:36 PM 15.0360 -60.6360 220° Southwest 366 421 10,200 -674 Descending FlightAware ADS-B
Thu 03:29:24 PM 14.9800 -60.6850 220° Southwest 339 390 9,800 -600 Descending FlightAware ADS-B
Thu 03:29:56 PM 14.9400 -60.7200 220° Southwest 318 366 9,400 -577 Descending FlightAware ADS-B
Thu 03:30:16 PM 14.9250 -60.7330 220° Southwest 310 357 9,300 -533 Descending FlightAware ADS-B
Thu 03:30:41 PM 14.8960 -60.7580 220° Southwest 300 345 9,000 -1,053 Descending FlightAware ADS-B
Thu 03:31:13 PM 14.8610 -60.7880 220° Southwest 297 342 8,300 -1,091 Descending FlightAware ADS-B
Thu 03:31:25 PM 14.8520 -60.7960 221° Southwest 296 341 8,200 -1,071 Descending FlightAware ADS-B
Thu 03:31:41 PM 14.8320 -60.8140 221° Southwest 295 339 7,800 -1,256 Descending FlightAware ADS-B
Thu 03:32:08 PM 14.8050 -60.8370 219° Southwest 295 339 7,300 -982 Descending FlightAware ADS-B
Thu 03:32:36 PM 14.7820 -60.8570 220° Southwest 291 335 6,900 -1,179 Descending FlightAware ADS-B
Thu 03:33:04 PM 14.7450 -60.8890 220° Southwest 287 330 6,200 -1,220 Descending FlightAware ADS-B
Thu 03:33:35 PM 14.7120 -60.9180 220° Southwest 283 326 5,700 -1,000 Descending FlightAware ADS-B
Thu 03:33:58 PM 14.6880 -60.9380 219° Southwest 280 322 5,300 -982 Descending FlightAware ADS-B
Thu 03:34:30 PM 14.6620 -60.9610 221° Southwest 277 319 4,800 -1,053 Descending FlightAware ADS-B
Thu 03:34:55 PM 14.6360 -60.9850 222° Southwest 275 316 4,300 -857 Descending FlightAware ADS-B
Thu 03:35:19 PM 14.6150 -61.0030 220° Southwest 265 305 4,100 -500 Descending FlightAware ADS-B
Thu 03:38:00 PM 14.5910 -61.0032 224° Southwest  Level Estimated
Thu 03:39:00 PM 14.5910 -61.0032 224° Southwest  Level Estimated
Thu 03:40:00 PM 14.5910 -61.0032 224° Southwest  Level Estimated
Thu 03:41:00 PM 14.5910 -61.0032 224° Southwest  Level Estimated
Thu 03:42:00 PM 14.5910 -61.0032 224° Southwest  Level Estimated
Thu 03:43:00 PM 14.5910 -61.0032 224° Southwest  Level Estimated
Thu 03:44:00 PM 14.5910 -61.0032 224° Southwest  Level Estimated
Thu 03:45:00 PM 14.5910 -61.0032 224° Southwest  Level Estimated
Thu 03:46:00 PM 14.5910 -61.0032 224° Southwest  Level Estimated
Thu 03:47:00 PM 14.5910 -61.0032 224° Southwest  Level Estimated
Thu 03:48:00 PM 14.5910 -61.0032 224° Southwest  Level Estimated
Thu 03:49:00 PM 14.5910 -61.0032 224° Southwest  Level Estimated
Thu 03:50:00 PM 14.5910 -61.0032 224° Southwest  Level Estimated
Thu 03:51:00 PM 14.5910 -61.0032 224° Southwest  Level Estimated
Thu 03:52:00 PM 14.5910 -61.0032 224° Southwest  Level Estimated

Login

Don't have an account? Register now (free) for customized features, flight alerts, and more!